Los Angeles, California
Traffic Map
Current Weather Conditions
Los Angeles, California
Clear
Clear
26°
Feels Like: 27°
Wind Chill: 26° Ceiling: Unl
Heat Index: 27° Visibility: 10mi
Dew Point: 18° Wind: 5mph
Humidity: 62% Direction: ° ()
Pressure: 29.86in Gusts: 0mph
Raw Report DataKCQT 020047Z AUTO VRB04KT 10SM CLR 26/18 A2986 RMK AO2 SLP108 T02560178
Traffic Incident Summary
Active as of:
Severity:
Category:
InformationThere was an issue retrieving the traffic information for this location. Please try a different location or try again shortly.
Advertisements
Track Severe Weather on mobile